sensor_id;sensor_type;location;lat;lon;timestamp;pressure;altitude;pressure_sealevel;temperature;humidity
66524;BME280;53350;52.210;5.160;2023-01-30T00:01:38;101751.31;;;8.51;79.11
66524;BME280;53350;52.210;5.160;2023-01-30T00:04:05;101756.53;;;8.60;79.01
66524;BME280;53350;52.210;5.160;2023-01-30T00:06:34;101763.44;;;8.64;78.83
66524;BME280;53350;52.210;5.160;2023-01-30T00:09:00;101744.63;;;8.68;78.71
66524;BME280;53350;52.210;5.160;2023-01-30T00:11:27;101735.28;;;8.74;78.51
66524;BME280;53350;52.210;5.160;2023-01-30T00:13:54;101724.13;;;8.73;78.79
66524;BME280;53350;52.210;5.160;2023-01-30T00:16:20;101731.84;;;8.75;78.68
66524;BME280;53350;52.210;5.160;2023-01-30T00:18:47;101724.19;;;8.78;78.55
66524;BME280;53350;52.210;5.160;2023-01-30T00:21:13;101721.66;;;8.81;78.80
66524;BME280;53350;52.210;5.160;2023-01-30T00:23:41;101721.66;;;8.82;78.62
66524;BME280;53350;52.210;5.160;2023-01-30T00:26:09;101715.69;;;8.85;78.62
66524;BME280;53350;52.210;5.160;2023-01-30T00:28:36;101718.28;;;8.88;78.66
66524;BME280;53350;52.210;5.160;2023-01-30T00:31:04;101711.44;;;8.90;78.64
66524;BME280;53350;52.210;5.160;2023-01-30T00:33:30;101708.06;;;8.94;78.47
66524;BME280;53350;52.210;5.160;2023-01-30T00:35:57;101693.50;;;8.98;78.37
66524;BME280;53350;52.210;5.160;2023-01-30T00:38:24;101690.13;;;9.00;78.55
66524;BME280;53350;52.210;5.160;2023-01-30T00:40:51;101680.75;;;9.07;78.40
66524;BME280;53350;52.210;5.160;2023-01-30T00:43:19;101680.75;;;9.09;78.34
66524;BME280;53350;52.210;5.160;2023-01-30T00:46:08;101687.69;;;9.17;77.93
66524;BME280;53350;52.210;5.160;2023-01-30T00:48:53;101685.97;;;9.19;77.98
66524;BME280;53350;52.210;5.160;2023-01-30T00:51:19;101694.56;;;9.20;78.38
66524;BME280;53350;52.210;5.160;2023-01-30T00:53:46;101680.00;;;9.22;78.39
66524;BME280;53350;52.210;5.160;2023-01-30T00:56:13;101676.59;;;9.26;78.47
66524;BME280;53350;52.210;5.160;2023-01-30T00:58:40;101671.50;;;9.34;78.24
66524;BME280;53350;52.210;5.160;2023-01-30T01:01:06;101656.06;;;9.34;78.44
66524;BME280;53350;52.210;5.160;2023-01-30T01:03:33;101664.66;;;9.34;78.30
66524;BME280;53350;52.210;5.160;2023-01-30T01:05:59;101639.81;;;9.38;78.42
66524;BME280;53350;52.210;5.160;2023-01-30T01:08:25;101648.44;;;9.45;78.31
66524;BME280;53350;52.210;5.160;2023-01-30T01:10:52;101637.31;;;9.47;78.31
66524;BME280;53350;52.210;5.160;2023-01-30T01:13:20;101625.31;;;9.49;78.32
66524;BME280;53350;52.210;5.160;2023-01-30T01:15:46;101621.88;;;9.49;78.41
66524;BME280;53350;52.210;5.160;2023-01-30T01:18:12;101610.72;;;9.48;78.61
66524;BME280;53350;52.210;5.160;2023-01-30T01:20:39;101615.03;;;9.49;78.44
66524;BME280;53350;52.210;5.160;2023-01-30T01:23:05;101613.31;;;9.50;78.41
66524;BME280;53350;52.210;5.160;2023-01-30T01:25:32;101614.19;;;9.50;78.71
66524;BME280;53350;52.210;5.160;2023-01-30T01:27:58;101613.31;;;9.50;78.84
66524;BME280;53350;52.210;5.160;2023-01-30T01:30:26;101611.59;;;9.50;78.80
66524;BME280;53350;52.210;5.160;2023-01-30T01:32:52;101614.19;;;9.56;78.61
66524;BME280;53350;52.210;5.160;2023-01-30T01:35:19;101604.75;;;9.54;78.79
66524;BME280;53350;52.210;5.160;2023-01-30T01:37:45;101614.19;;;9.58;78.53
66524;BME280;53350;52.210;5.160;2023-01-30T01:40:17;101615.91;;;9.56;78.73
66524;BME280;53350;52.210;5.160;2023-01-30T01:43:02;101618.50;;;9.54;78.90
66524;BME280;53350;52.210;5.160;2023-01-30T01:45:30;101610.78;;;9.56;78.99
66524;BME280;53350;52.210;5.160;2023-01-30T01:47:59;101609.06;;;9.55;78.91
66524;BME280;53350;52.210;5.160;2023-01-30T01:50:30;101614.19;;;9.56;78.96
66524;BME280;53350;52.210;5.160;2023-01-30T01:53:03;101597.09;;;9.62;78.74
66524;BME280;53350;52.210;5.160;2023-01-30T01:55:31;101599.63;;;9.58;78.90
66524;BME280;53350;52.210;5.160;2023-01-30T01:58:01;101603.06;;;9.56;79.29
66524;BME280;53350;52.210;5.160;2023-01-30T02:00:31;101601.34;;;9.58;79.14
66524;BME280;53350;52.210;5.160;2023-01-30T02:03:00;101606.47;;;9.55;79.38
66524;BME280;53350;52.210;5.160;2023-01-30T02:05:30;101598.75;;;9.55;79.40
66524;BME280;53350;52.210;5.160;2023-01-30T02:07:59;101604.75;;;9.57;79.11
66524;BME280;53350;52.210;5.160;2023-01-30T02:10:34;101606.47;;;9.52;79.51
66524;BME280;53350;52.210;5.160;2023-01-30T02:13:02;101613.31;;;9.50;79.41
66524;BME280;53350;52.210;5.160;2023-01-30T02:15:29;101609.03;;;9.49;79.54
66524;BME280;53350;52.210;5.160;2023-01-30T02:17:57;101600.44;;;9.48;79.79
66524;BME280;53350;52.210;5.160;2023-01-30T02:20:30;101603.00;;;9.47;79.69
66524;BME280;53350;52.210;5.160;2023-01-30T02:23:32;101616.75;;;9.49;79.68
66524;BME280;53350;52.210;5.160;2023-01-30T02:26:22;101605.56;;;9.47;79.46
66524;BME280;53350;52.210;5.160;2023-01-30T02:29:13;101603.84;;;9.43;79.81
66524;BME280;53350;52.210;5.160;2023-01-30T02:31:49;101589.28;;;9.38;79.51
66524;BME280;53350;52.210;5.160;2023-01-30T02:34:31;101585.00;;;9.47;79.51
66524;BME280;53350;52.210;5.160;2023-01-30T02:37:08;101580.69;;;9.43;79.61
66524;BME280;53350;52.210;5.160;2023-01-30T02:39:51;101574.72;;;9.45;79.47
66524;BME280;53350;52.210;5.160;2023-01-30T02:42:25;101584.13;;;9.42;80.07
66524;BME280;53350;52.210;5.160;2023-01-30T02:45:00;101579.00;;;9.42;79.72
66524;BME280;53350;52.210;5.160;2023-01-30T02:47:33;101585.81;;;9.41;79.74
66524;BME280;53350;52.210;5.160;2023-01-30T02:50:06;101585.81;;;9.39;79.78
66524;BME280;53350;52.210;5.160;2023-01-30T02:52:34;101581.50;;;9.35;80.13
66524;BME280;53350;52.210;5.160;2023-01-30T02:55:06;101578.13;;;9.41;79.82
66524;BME280;53350;52.210;5.160;2023-01-30T02:57:33;101588.38;;;9.36;79.73
66524;BME280;53350;52.210;5.160;2023-01-30T03:00:02;101573.81;;;9.34;79.83
66524;BME280;53350;52.210;5.160;2023-01-30T03:03:02;101572.09;;;9.33;79.87
66524;BME280;53350;52.210;5.160;2023-01-30T03:05:47;101568.66;;;9.32;79.84
66524;BME280;53350;52.210;5.160;2023-01-30T03:08:23;101563.50;;;9.32;80.08
66524;BME280;53350;52.210;5.160;2023-01-30T03:10:54;101548.06;;;9.29;80.09
66524;BME280;53350;52.210;5.160;2023-01-30T03:13:28;101554.97;;;9.35;80.08
66524;BME280;53350;52.210;5.160;2023-01-30T03:16:04;101550.66;;;9.37;79.75
66524;BME280;53350;52.210;5.160;2023-01-30T03:18:34;101554.97;;;9.41;79.51
66524;BME280;53350;52.210;5.160;2023-01-30T03:21:03;101557.53;;;9.39;79.80
66524;BME280;53350;52.210;5.160;2023-01-30T03:23:29;101545.56;;;9.43;79.71
66524;BME280;53350;52.210;5.160;2023-01-30T03:25:56;101546.41;;;9.42;79.67
66524;BME280;53350;52.210;5.160;2023-01-30T03:28:24;101554.13;;;9.44;79.57
66524;BME280;53350;52.210;5.160;2023-01-30T03:30:51;101547.25;;;9.43;79.84
66524;BME280;53350;52.210;5.160;2023-01-30T03:33:18;101552.47;;;9.49;79.39
66524;BME280;53350;52.210;5.160;2023-01-30T03:35:45;101534.47;;;9.50;79.23
66524;BME280;53350;52.210;5.160;2023-01-30T03:38:12;101545.59;;;9.51;79.21
66524;BME280;53350;52.210;5.160;2023-01-30T03:40:38;101551.59;;;9.51;79.12
66524;BME280;53350;52.210;5.160;2023-01-30T03:43:05;101557.63;;;9.56;78.96
66524;BME280;53350;52.210;5.160;2023-01-30T03:45:32;101549.91;;;9.55;79.24
66524;BME280;53350;52.210;5.160;2023-01-30T03:47:58;101551.63;;;9.56;78.99
66524;BME280;53350;52.210;5.160;2023-01-30T03:50:25;101555.03;;;9.53;79.15
66524;BME280;53350;52.210;5.160;2023-01-30T03:52:52;101549.06;;;9.54;78.86
66524;BME280;53350;52.210;5.160;2023-01-30T03:55:19;101532.75;;;9.60;78.79
66524;BME280;53350;52.210;5.160;2023-01-30T03:57:45;101549.91;;;9.60;78.81
66524;BME280;53350;52.210;5.160;2023-01-30T04:00:13;101547.34;;;9.61;79.15
66524;BME280;53350;52.210;5.160;2023-01-30T04:02:40;101543.91;;;9.64;78.54
66524;BME280;53350;52.210;5.160;2023-01-30T04:05:06;101547.34;;;9.64;78.47
66524;BME280;53350;52.210;5.160;2023-01-30T04:07:33;101548.22;;;9.66;78.23
66524;BME280;53350;52.210;5.160;2023-01-30T04:10:00;101554.22;;;9.64;78.30
66524;BME280;53350;52.210;5.160;2023-01-30T04:12:27;101546.50;;;9.65;78.17
66524;BME280;53350;52.210;5.160;2023-01-30T04:14:53;101552.50;;;9.66;78.29
66524;BME280;53350;52.210;5.160;2023-01-30T04:17:20;101548.22;;;9.66;78.34
66524;BME280;53350;52.210;5.160;2023-01-30T04:19:46;101575.69;;;9.70;78.14
66524;BME280;53350;52.210;5.160;2023-01-30T04:22:12;101575.69;;;9.73;77.57
66524;BME280;53350;52.210;5.160;2023-01-30T04:24:39;101566.25;;;9.72;77.21
66524;BME280;53350;52.210;5.160;2023-01-30T04:27:07;101559.38;;;9.70;77.60
66524;BME280;53350;52.210;5.160;2023-01-30T04:29:33;101570.53;;;9.70;77.47
66524;BME280;53350;52.210;5.160;2023-01-30T04:32:00;101567.94;;;9.67;77.20
66524;BME280;53350;52.210;5.160;2023-01-30T04:34:26;101567.06;;;9.68;77.12
66524;BME280;53350;52.210;5.160;2023-01-30T04:36:52;101558.50;;;9.66;77.17
66524;BME280;53350;52.210;5.160;2023-01-30T04:39:19;101563.66;;;9.72;76.75
66524;BME280;53350;52.210;5.160;2023-01-30T04:41:45;101568.81;;;9.71;76.65
66524;BME280;53350;52.210;5.160;2023-01-30T04:44:13;101581.69;;;9.72;76.67
66524;BME280;53350;52.210;5.160;2023-01-30T04:46:39;101573.13;;;9.75;75.99
66524;BME280;53350;52.210;5.160;2023-01-30T04:49:08;101581.69;;;9.77;75.33
66524;BME280;53350;52.210;5.160;2023-01-30T04:51:34;101568.81;;;9.75;75.25
66524;BME280;53350;52.210;5.160;2023-01-30T04:54:01;101561.09;;;9.72;75.12
66524;BME280;53350;52.210;5.160;2023-01-30T04:56:27;101565.41;;;9.72;74.97
66524;BME280;53350;52.210;5.160;2023-01-30T04:58:54;101561.94;;;9.73;75.11
66524;BME280;53350;52.210;5.160;2023-01-30T05:01:24;101560.25;;;9.80;74.26
66524;BME280;53350;52.210;5.160;2023-01-30T05:03:51;101564.56;;;9.78;74.10
66524;BME280;53350;52.210;5.160;2023-01-30T05:06:18;101570.56;;;9.80;73.52
66524;BME280;53350;52.210;5.160;2023-01-30T05:08:47;101567.13;;;9.78;73.22
66524;BME280;53350;52.210;5.160;2023-01-30T05:11:13;101575.69;;;9.78;73.43
66524;BME280;53350;52.210;5.160;2023-01-30T05:13:39;101576.53;;;9.82;73.15
66524;BME280;53350;52.210;5.160;2023-01-30T05:16:08;101580.84;;;9.80;72.96
66524;BME280;53350;52.210;5.160;2023-01-30T05:18:36;101586.00;;;9.83;72.34
66524;BME280;53350;52.210;5.160;2023-01-30T05:21:04;101586.81;;;9.75;72.51
66524;BME280;53350;52.210;5.160;2023-01-30T05:23:30;101584.25;;;9.75;72.27
66524;BME280;53350;52.210;5.160;2023-01-30T05:25:57;101583.41;;;9.73;71.54
66524;BME280;53350;52.210;5.160;2023-01-30T05:28:24;101583.34;;;9.66;71.11
66524;BME280;53350;52.210;5.160;2023-01-30T05:30:50;101590.22;;;9.67;70.96
66524;BME280;53350;52.210;5.160;2023-01-30T05:33:17;101585.91;;;9.63;70.81
66524;BME280;53350;52.210;5.160;2023-01-30T05:35:46;101592.78;;;9.65;70.26
66524;BME280;53350;52.210;5.160;2023-01-30T05:38:13;101594.50;;;9.62;70.69
66524;BME280;53350;52.210;5.160;2023-01-30T05:40:39;101601.34;;;9.56;70.62
66524;BME280;53350;52.210;5.160;2023-01-30T05:43:06;101595.34;;;9.57;70.21
66524;BME280;53350;52.210;5.160;2023-01-30T05:45:33;101594.47;;;9.52;69.81
66524;BME280;53350;52.210;5.160;2023-01-30T05:48:00;101590.19;;;9.54;69.32
66524;BME280;53350;52.210;5.160;2023-01-30T05:50:26;101593.59;;;9.52;69.07
66524;BME280;53350;52.210;5.160;2023-01-30T05:52:54;101604.72;;;9.42;69.15
66524;BME280;53350;52.210;5.160;2023-01-30T05:55:21;101598.69;;;9.44;68.80
66524;BME280;53350;52.210;5.160;2023-01-30T05:57:47;101590.97;;;9.38;68.43
66524;BME280;53350;52.210;5.160;2023-01-30T06:00:14;101602.97;;;9.34;68.02
66524;BME280;53350;52.210;5.160;2023-01-30T06:02:41;101600.41;;;9.36;67.23
66524;BME280;53350;52.210;5.160;2023-01-30T06:05:08;101601.22;;;9.32;66.74
66524;BME280;53350;52.210;5.160;2023-01-30T06:07:34;101602.06;;;9.26;66.76
66524;BME280;53350;52.210;5.160;2023-01-30T06:10:02;101603.72;;;9.21;66.06
66524;BME280;53350;52.210;5.160;2023-01-30T06:12:28;101609.72;;;9.17;66.02
66524;BME280;53350;52.210;5.160;2023-01-30T06:14:55;101604.53;;;9.11;66.14
66524;BME280;53350;52.210;5.160;2023-01-30T06:17:21;101620.81;;;9.08;66.31
66524;BME280;53350;52.210;5.160;2023-01-30T06:19:48;101631.94;;;9.07;66.07
66524;BME280;53350;52.210;5.160;2023-01-30T06:22:14;101643.03;;;9.04;65.47
66524;BME280;53350;52.210;5.160;2023-01-30T06:24:41;101624.22;;;9.05;65.59
66524;BME280;53350;52.210;5.160;2023-01-30T06:27:08;101625.91;;;9.07;65.85
66524;BME280;53350;52.210;5.160;2023-01-30T06:29:35;101622.50;;;9.06;65.86
66524;BME280;53350;52.210;5.160;2023-01-30T06:32:01;101615.59;;;8.99;66.63
66524;BME280;53350;52.210;5.160;2023-01-30T06:34:28;101612.19;;;9.01;66.98
66524;BME280;53350;52.210;5.160;2023-01-30T06:36:54;101610.41;;;8.94;67.46
66524;BME280;53350;52.210;5.160;2023-01-30T06:39:20;101624.94;;;8.89;67.63
66524;BME280;53350;52.210;5.160;2023-01-30T06:41:47;101612.97;;;8.90;67.43
66524;BME280;53350;52.210;5.160;2023-01-30T06:44:15;101624.09;;;8.88;67.58
66524;BME280;53350;52.210;5.160;2023-01-30T06:46:41;101624.91;;;8.83;67.43
66524;BME280;53350;52.210;5.160;2023-01-30T06:49:08;101618.88;;;8.78;67.27
66524;BME280;53350;52.210;5.160;2023-01-30T06:51:34;101628.28;;;8.79;67.18
66524;BME280;53350;52.210;5.160;2023-01-30T06:54:00;101636.84;;;8.76;66.93
66524;BME280;53350;52.210;5.160;2023-01-30T06:56:27;101637.69;;;8.75;66.90
66524;BME280;53350;52.210;5.160;2023-01-30T06:58:53;101651.38;;;8.74;67.00
66524;BME280;53350;52.210;5.160;2023-01-30T07:01:21;101648.84;;;8.80;66.28
66524;BME280;53350;52.210;5.160;2023-01-30T07:03:47;101653.06;;;8.72;66.81
66524;BME280;53350;52.210;5.160;2023-01-30T07:06:14;101644.56;;;8.76;66.38
66524;BME280;53350;52.210;5.160;2023-01-30T07:08:40;101653.09;;;8.74;66.21
66524;BME280;53350;52.210;5.160;2023-01-30T07:11:08;101659.06;;;8.74;66.11
66524;BME280;53350;52.210;5.160;2023-01-30T07:13:35;101665.06;;;8.75;65.68
66524;BME280;53350;52.210;5.160;2023-01-30T07:16:01;101676.13;;;8.67;66.06
66524;BME280;53350;52.210;5.160;2023-01-30T07:18:29;101679.56;;;8.66;65.46
66524;BME280;53350;52.210;5.160;2023-01-30T07:20:55;101674.41;;;8.65;65.56
66524;BME280;53350;52.210;5.160;2023-01-30T07:23:22;101667.56;;;8.64;65.48
66524;BME280;53350;52.210;5.160;2023-01-30T07:25:48;101673.50;;;8.61;65.90
66524;BME280;53350;52.210;5.160;2023-01-30T07:28:14;101672.69;;;8.62;65.56
66524;BME280;53350;52.210;5.160;2023-01-30T07:30:41;101673.44;;;8.53;65.74
66524;BME280;53350;52.210;5.160;2023-01-30T07:33:07;101676.91;;;8.57;65.41
66524;BME280;53350;52.210;5.160;2023-01-30T07:35:36;101670.88;;;8.53;65.59
66524;BME280;53350;52.210;5.160;2023-01-30T07:38:04;101683.72;;;8.53;65.68
66524;BME280;53350;52.210;5.160;2023-01-30T07:40:31;101682.88;;;8.55;65.90
66524;BME280;53350;52.210;5.160;2023-01-30T07:42:58;101672.66;;;8.59;65.90
66524;BME280;53350;52.210;5.160;2023-01-30T07:45:27;101680.34;;;8.59;66.08
66524;BME280;53350;52.210;5.160;2023-01-30T07:47:54;101670.97;;;8.63;66.22
66524;BME280;53350;52.210;5.160;2023-01-30T07:50:21;101676.09;;;8.64;66.66
66524;BME280;53350;52.210;5.160;2023-01-30T07:52:49;101676.97;;;8.62;66.23
66524;BME280;53350;52.210;5.160;2023-01-30T07:55:15;101683.78;;;8.61;65.89
66524;BME280;53350;52.210;5.160;2023-01-30T07:57:42;101678.66;;;8.63;65.74
66524;BME280;53350;52.210;5.160;2023-01-30T08:00:09;101676.09;;;8.61;65.86
66524;BME280;53350;52.210;5.160;2023-01-30T08:02:36;101682.09;;;8.62;65.99
66524;BME280;53350;52.210;5.160;2023-01-30T08:05:03;101682.09;;;8.62;65.90
66524;BME280;53350;52.210;5.160;2023-01-30T08:07:30;101677.84;;;8.65;66.09
66524;BME280;53350;52.210;5.160;2023-01-30T08:09:58;101677.81;;;8.62;65.92
66524;BME280;53350;52.210;5.160;2023-01-30T08:12:24;101688.13;;;8.68;66.00
66524;BME280;53350;52.210;5.160;2023-01-30T08:14:51;101690.75;;;8.75;65.74
66524;BME280;53350;52.210;5.160;2023-01-30T08:17:17;101695.09;;;8.80;65.88
66524;BME280;53350;52.210;5.160;2023-01-30T08:19:43;101690.81;;;8.79;65.47
66524;BME280;53350;52.210;5.160;2023-01-30T08:22:10;101703.69;;;8.81;65.61
66524;BME280;53350;52.210;5.160;2023-01-30T08:24:36;101698.53;;;8.81;65.33
66524;BME280;53350;52.210;5.160;2023-01-30T08:27:04;101713.97;;;8.84;65.06
66524;BME280;53350;52.210;5.160;2023-01-30T08:29:30;101708.00;;;8.86;64.84
66524;BME280;53350;52.210;5.160;2023-01-30T08:31:57;101713.19;;;8.94;64.82
66524;BME280;53350;52.210;5.160;2023-01-30T08:34:23;101730.28;;;8.91;64.73
66524;BME280;53350;52.210;5.160;2023-01-30T08:36:50;101744.03;;;8.96;64.52
66524;BME280;53350;52.210;5.160;2023-01-30T08:39:16;101742.41;;;9.02;64.19
66524;BME280;53350;52.210;5.160;2023-01-30T08:41:43;101740.63;;;8.95;64.32
66524;BME280;53350;52.210;5.160;2023-01-30T08:44:11;101762.06;;;8.99;63.81
66524;BME280;53350;52.210;5.160;2023-01-30T08:46:38;101761.22;;;9.01;63.81
66524;BME280;53350;52.210;5.160;2023-01-30T08:49:05;101760.38;;;9.01;63.84
66524;BME280;53350;52.210;5.160;2023-01-30T08:51:32;101749.22;;;9.00;63.93
66524;BME280;53350;52.210;5.160;2023-01-30T08:53:58;101737.25;;;9.02;64.17
66524;BME280;53350;52.210;5.160;2023-01-30T08:56:25;101746.66;;;9.02;64.77
66524;BME280;53350;52.210;5.160;2023-01-30T08:58:51;101739.91;;;9.13;64.87
66524;BME280;53350;52.210;5.160;2023-01-30T09:01:19;101756.16;;;9.09;64.69
66524;BME280;53350;52.210;5.160;2023-01-30T09:03:46;101758.75;;;9.14;63.92
66524;BME280;53350;52.210;5.160;2023-01-30T09:06:12;101770.72;;;9.09;64.13
66524;BME280;53350;52.210;5.160;2023-01-30T09:08:39;101763.00;;;9.09;64.42
66524;BME280;53350;52.210;5.160;2023-01-30T09:11:05;101761.28;;;9.09;64.42
66524;BME280;53350;52.210;5.160;2023-01-30T09:13:33;101760.41;;;9.05;64.83
66524;BME280;53350;52.210;5.160;2023-01-30T09:16:00;101767.31;;;9.08;64.58
66524;BME280;53350;52.210;5.160;2023-01-30T09:18:29;101775.91;;;9.16;63.83
66524;BME280;53350;52.210;5.160;2023-01-30T09:21:01;101790.53;;;9.20;63.84
66524;BME280;53350;52.210;5.160;2023-01-30T09:23:28;101776.78;;;9.17;63.70
66524;BME280;53350;52.210;5.160;2023-01-30T09:25:54;101769.97;;;9.23;63.54
66524;BME280;53350;52.210;5.160;2023-01-30T09:28:21;101769.13;;;9.25;63.60
66524;BME280;53350;52.210;5.160;2023-01-30T09:30:47;101776.88;;;9.26;63.96
66524;BME280;53350;52.210;5.160;2023-01-30T09:33:14;101794.06;;;9.33;63.65
66524;BME280;53350;52.210;5.160;2023-01-30T09:35:47;101781.25;;;9.39;63.27
66524;BME280;53350;52.210;5.160;2023-01-30T09:38:13;101806.13;;;9.42;63.42
66524;BME280;53350;52.210;5.160;2023-01-30T09:40:49;101804.41;;;9.43;63.42
66524;BME280;53350;52.210;5.160;2023-01-30T09:43:31;101802.72;;;9.43;63.31
66524;BME280;53350;52.210;5.160;2023-01-30T09:46:09;101814.69;;;9.43;63.37
66524;BME280;53350;52.210;5.160;2023-01-30T09:48:45;101811.28;;;9.44;63.12
66524;BME280;53350;52.210;5.160;2023-01-30T09:51:30;101819.84;;;9.43;63.48
66524;BME280;53350;52.210;5.160;2023-01-30T09:54:08;101812.16;;;9.46;63.42
66524;BME280;53350;52.210;5.160;2023-01-30T09:56:40;101825.88;;;9.46;63.27
66524;BME280;53350;52.210;5.160;2023-01-30T09:59:16;101834.47;;;9.48;63.34
66524;BME280;53350;52.210;5.160;2023-01-30T10:01:52;101824.22;;;9.53;63.10
66524;BME280;53350;52.210;5.160;2023-01-30T10:04:23;101817.34;;;9.49;63.11
66524;BME280;53350;52.210;5.160;2023-01-30T10:07:00;101816.47;;;9.50;63.15
66524;BME280;53350;52.210;5.160;2023-01-30T10:09:38;101826.78;;;9.53;62.65
66524;BME280;53350;52.210;5.160;2023-01-30T10:12:20;101825.91;;;9.51;62.84
66524;BME280;53350;52.210;5.160;2023-01-30T10:15:02;101835.38;;;9.53;62.49
66524;BME280;53350;52.210;5.160;2023-01-30T10:17:45;101837.94;;;9.52;63.16
66524;BME280;53350;52.210;5.160;2023-01-30T10:20:22;101833.63;;;9.51;62.96
66524;BME280;53350;52.210;5.160;2023-01-30T10:23:03;101831.03;;;9.46;62.82
66524;BME280;53350;52.210;5.160;2023-01-30T10:25:35;101849.91;;;9.51;62.42
66524;BME280;53350;52.210;5.160;2023-01-30T10:28:12;101855.91;;;9.47;62.97
66524;BME280;53350;52.210;5.160;2023-01-30T10:30:43;101851.63;;;9.49;63.23
66524;BME280;53350;52.210;5.160;2023-01-30T10:33:17;101850.78;;;9.52;63.14
66524;BME280;53350;52.210;5.160;2023-01-30T10:35:49;101863.66;;;9.53;62.86
66524;BME280;53350;52.210;5.160;2023-01-30T10:38:27;101874.81;;;9.55;62.64
66524;BME280;53350;52.210;5.160;2023-01-30T10:40:59;101874.75;;;9.48;62.70
66524;BME280;53350;52.210;5.160;2023-01-30T10:43:31;101862.84;;;9.56;62.74
66524;BME280;53350;52.210;5.160;2023-01-30T10:46:06;101868.81;;;9.55;62.81
66524;BME280;53350;52.210;5.160;2023-01-30T10:48:54;101874.00;;;9.60;62.54
66524;BME280;53350;52.210;5.160;2023-01-30T10:51:35;101868.81;;;9.55;62.55
66524;BME280;53350;52.210;5.160;2023-01-30T10:54:11;101864.63;;;9.63;62.55
66524;BME280;53350;52.210;5.160;2023-01-30T10:56:44;101863.75;;;9.66;62.51
66524;BME280;53350;52.210;5.160;2023-01-30T10:59:22;101859.53;;;9.75;62.24
66524;BME280;53350;52.210;5.160;2023-01-30T11:01:56;101851.94;;;9.86;62.30
66524;BME280;53350;52.210;5.160;2023-01-30T11:04:29;101852.78;;;9.90;61.98
66524;BME280;53350;52.210;5.160;2023-01-30T11:06:57;101856.28;;;9.98;61.58
66524;BME280;53350;52.210;5.160;2023-01-30T11:09:38;101841.72;;;10.02;61.47
66524;BME280;53350;52.210;5.160;2023-01-30T11:12:05;101852.94;;;10.10;61.11
66524;BME280;53350;52.210;5.160;2023-01-30T11:14:50;101875.25;;;10.11;61.00
66524;BME280;53350;52.210;5.160;2023-01-30T11:17:17;101856.41;;;10.17;60.26
66524;BME280;53350;52.210;5.160;2023-01-30T11:19:44;101855.50;;;10.13;60.50
66524;BME280;53350;52.210;5.160;2023-01-30T11:22:18;101861.50;;;10.15;60.48
66524;BME280;53350;52.210;5.160;2023-01-30T11:24:46;101858.94;;;10.14;60.81
66524;BME280;53350;52.210;5.160;2023-01-30T11:27:17;101863.19;;;10.05;60.73
66524;BME280;53350;52.210;5.160;2023-01-30T11:29:44;101860.66;;;10.16;60.50
66524;BME280;53350;52.210;5.160;2023-01-30T11:32:14;101877.84;;;10.17;61.65
66524;BME280;53350;52.210;5.160;2023-01-30T11:35:01;101858.09;;;10.18;61.34
66524;BME280;53350;52.210;5.160;2023-01-30T11:37:30;101856.41;;;10.17;61.07
66524;BME280;53350;52.210;5.160;2023-01-30T11:39:58;101865.84;;;10.19;60.76
66524;BME280;53350;52.210;5.160;2023-01-30T11:42:32;101867.53;;;10.14;60.64
66524;BME280;53350;52.210;5.160;2023-01-30T11:44:59;101867.53;;;10.14;60.68
66524;BME280;53350;52.210;5.160;2023-01-30T11:47:27;101865.81;;;10.13;60.97
66524;BME280;53350;52.210;5.160;2023-01-30T11:49:55;101883.00;;;10.14;61.14
66524;BME280;53350;52.210;5.160;2023-01-30T11:52:28;101855.59;;;10.24;60.94
66524;BME280;53350;52.210;5.160;2023-01-30T11:54:59;101879.63;;;10.24;60.95
66524;BME280;53350;52.210;5.160;2023-01-30T11:57:37;101867.66;;;10.33;61.25
66524;BME280;53350;52.210;5.160;2023-01-30T12:00:13;101869.44;;;10.40;61.27
66524;BME280;53350;52.210;5.160;2023-01-30T12:02:42;101864.31;;;10.46;60.48
66524;BME280;53350;52.210;5.160;2023-01-30T12:05:21;101882.31;;;10.40;60.80
66524;BME280;53350;52.210;5.160;2023-01-30T12:07:50;101872.88;;;10.43;60.87
66524;BME280;53350;52.210;5.160;2023-01-30T12:10:28;101864.31;;;10.51;60.56
66524;BME280;53350;52.210;5.160;2023-01-30T12:12:55;101871.22;;;10.52;60.78
66524;BME280;53350;52.210;5.160;2023-01-30T12:15:25;101878.13;;;10.62;60.67
66524;BME280;53350;52.210;5.160;2023-01-30T12:17:58;101863.50;;;10.61;59.96
66524;BME280;53350;52.210;5.160;2023-01-30T12:20:32;101891.00;;;10.64;60.43
66524;BME280;53350;52.210;5.160;2023-01-30T12:23:10;101886.69;;;10.61;60.32
66524;BME280;53350;52.210;5.160;2023-01-30T12:25:43;101884.03;;;10.44;61.09
66524;BME280;53350;52.210;5.160;2023-01-30T12:28:19;101890.00;;;10.38;61.10
66524;BME280;53350;52.210;5.160;2023-01-30T12:30:50;101896.06;;;10.47;60.82
66524;BME280;53350;52.210;5.160;2023-01-30T12:33:21;101902.94;;;10.41;61.38
66524;BME280;53350;52.210;5.160;2023-01-30T12:36:01;101903.78;;;10.43;60.87
66524;BME280;53350;52.210;5.160;2023-01-30T12:38:48;101907.09;;;10.25;60.38
66524;BME280;53350;52.210;5.160;2023-01-30T12:41:28;101902.75;;;10.20;60.13
66524;BME280;53350;52.210;5.160;2023-01-30T12:44:10;101909.69;;;10.29;60.39
66524;BME280;53350;52.210;5.160;2023-01-30T12:46:49;101907.03;;;10.21;60.73
66524;BME280;53350;52.210;5.160;2023-01-30T12:49:35;101907.94;;;10.27;60.50
66524;BME280;53350;52.210;5.160;2023-01-30T12:52:20;101913.94;;;10.23;60.53
66524;BME280;53350;52.210;5.160;2023-01-30T12:54:56;101907.09;;;10.24;60.25
66524;BME280;53350;52.210;5.160;2023-01-30T12:57:35;101913.13;;;10.32;59.65
66524;BME280;53350;52.210;5.160;2023-01-30T13:00:23;101920.06;;;10.38;59.73
66524;BME280;53350;52.210;5.160;2023-01-30T13:03:10;101915.66;;;10.23;59.78
66524;BME280;53350;52.210;5.160;2023-01-30T13:05:44;101914.00;;;10.33;60.03
66524;BME280;53350;52.210;5.160;2023-01-30T13:08:33;101921.78;;;10.34;59.61
66524;BME280;53350;52.210;5.160;2023-01-30T13:11:11;101925.22;;;10.36;59.30
66524;BME280;53350;52.210;5.160;2023-01-30T13:13:45;101919.19;;;10.34;59.11